sensor_id;sensor_type;location;lat;lon;timestamp;P1;durP1;ratioP1;P2;durP2;ratioP2
53915;SDS011;39827;49.652;18.770;2023-08-17T00:01:22;89.13;;;83.38;;
53915;SDS011;39827;49.652;18.770;2023-08-17T00:03:48;88.40;;;82.85;;
53915;SDS011;39827;49.652;18.770;2023-08-17T00:06:14;96.57;;;90.00;;
53915;SDS011;39827;49.652;18.770;2023-08-17T00:08:39;97.63;;;91.53;;
53915;SDS011;39827;49.652;18.770;2023-08-17T00:11:04;89.85;;;83.80;;
53915;SDS011;39827;49.652;18.770;2023-08-17T00:13:30;79.43;;;74.00;;
53915;SDS011;39827;49.652;18.770;2023-08-17T00:15:55;68.47;;;63.92;;
53915;SDS011;39827;49.652;18.770;2023-08-17T00:18:21;83.70;;;78.05;;
53915;SDS011;39827;49.652;18.770;2023-08-17T00:20:46;92.68;;;86.88;;
53915;SDS011;39827;49.652;18.770;2023-08-17T00:23:11;83.57;;;78.30;;
53915;SDS011;39827;49.652;18.770;2023-08-17T00:25:37;69.68;;;65.20;;
53915;SDS011;39827;49.652;18.770;2023-08-17T00:28:02;73.13;;;68.50;;
53915;SDS011;39827;49.652;18.770;2023-08-17T00:30:28;71.47;;;66.93;;
53915;SDS011;39827;49.652;18.770;2023-08-17T00:32:53;65.93;;;61.55;;
53915;SDS011;39827;49.652;18.770;2023-08-17T00:35:19;75.82;;;71.13;;
53915;SDS011;39827;49.652;18.770;2023-08-17T00:37:45;78.35;;;73.38;;
53915;SDS011;39827;49.652;18.770;2023-08-17T00:40:10;71.03;;;65.60;;
53915;SDS011;39827;49.652;18.770;2023-08-17T00:42:36;76.65;;;71.80;;
53915;SDS011;39827;49.652;18.770;2023-08-17T00:45:01;68.15;;;63.53;;
53915;SDS011;39827;49.652;18.770;2023-08-17T00:47:27;64.22;;;60.10;;
53915;SDS011;39827;49.652;18.770;2023-08-17T00:49:53;72.88;;;67.93;;
53915;SDS011;39827;49.652;18.770;2023-08-17T00:52:19;60.42;;;56.42;;
53915;SDS011;39827;49.652;18.770;2023-08-17T00:54:44;52.55;;;48.42;;
53915;SDS011;39827;49.652;18.770;2023-08-17T00:57:10;53.40;;;49.67;;
53915;SDS011;39827;49.652;18.770;2023-08-17T00:59:36;49.33;;;45.95;;
53915;SDS011;39827;49.652;18.770;2023-08-17T01:02:02;51.85;;;48.25;;
53915;SDS011;39827;49.652;18.770;2023-08-17T01:04:27;50.25;;;46.60;;
53915;SDS011;39827;49.652;18.770;2023-08-17T01:06:53;46.22;;;42.42;;
53915;SDS011;39827;49.652;18.770;2023-08-17T01:09:18;46.42;;;42.92;;
53915;SDS011;39827;49.652;18.770;2023-08-17T01:11:55;45.92;;;42.70;;
53915;SDS011;39827;49.652;18.770;2023-08-17T01:14:37;44.13;;;40.85;;
53915;SDS011;39827;49.652;18.770;2023-08-17T01:17:15;41.50;;;38.40;;
53915;SDS011;39827;49.652;18.770;2023-08-17T01:19:49;44.35;;;41.00;;
53915;SDS011;39827;49.652;18.770;2023-08-17T01:22:17;40.53;;;37.63;;
53915;SDS011;39827;49.652;18.770;2023-08-17T01:24:46;44.20;;;40.90;;
53915;SDS011;39827;49.652;18.770;2023-08-17T01:27:11;42.75;;;39.72;;
53915;SDS011;39827;49.652;18.770;2023-08-17T01:29:37;46.28;;;42.58;;
53915;SDS011;39827;49.652;18.770;2023-08-17T01:34:32;50.38;;;46.97;;
53915;SDS011;39827;49.652;18.770;2023-08-17T01:37:02;46.25;;;42.53;;
53915;SDS011;39827;49.652;18.770;2023-08-17T01:39:37;60.75;;;55.92;;
53915;SDS011;39827;49.652;18.770;2023-08-17T01:44:30;47.30;;;43.95;;
53915;SDS011;39827;49.652;18.770;2023-08-17T01:46:55;73.97;;;69.13;;
53915;SDS011;39827;49.652;18.770;2023-08-17T01:49:21;77.60;;;72.30;;
53915;SDS011;39827;49.652;18.770;2023-08-17T01:51:47;88.55;;;82.88;;
53915;SDS011;39827;49.652;18.770;2023-08-17T01:54:12;82.65;;;77.22;;
53915;SDS011;39827;49.652;18.770;2023-08-17T01:56:37;96.60;;;90.32;;
53915;SDS011;39827;49.652;18.770;2023-08-17T01:59:03;89.05;;;83.20;;
53915;SDS011;39827;49.652;18.770;2023-08-17T02:01:28;91.75;;;85.85;;
53915;SDS011;39827;49.652;18.770;2023-08-17T02:03:54;92.60;;;86.68;;
53915;SDS011;39827;49.652;18.770;2023-08-17T02:06:19;77.07;;;71.88;;
53915;SDS011;39827;49.652;18.770;2023-08-17T02:08:45;74.72;;;69.82;;
53915;SDS011;39827;49.652;18.770;2023-08-17T02:11:10;83.15;;;77.13;;
53915;SDS011;39827;49.652;18.770;2023-08-17T02:13:36;83.53;;;77.97;;
53915;SDS011;39827;49.652;18.770;2023-08-17T02:16:02;83.30;;;77.72;;
53915;SDS011;39827;49.652;18.770;2023-08-17T02:18:29;76.18;;;71.20;;
53915;SDS011;39827;49.652;18.770;2023-08-17T02:20:56;90.28;;;83.90;;
53915;SDS011;39827;49.652;18.770;2023-08-17T02:23:21;84.50;;;79.15;;
53915;SDS011;39827;49.652;18.770;2023-08-17T02:25:47;79.85;;;74.70;;
53915;SDS011;39827;49.652;18.770;2023-08-17T02:28:12;81.38;;;76.15;;
53915;SDS011;39827;49.652;18.770;2023-08-17T02:30:38;76.55;;;71.78;;
53915;SDS011;39827;49.652;18.770;2023-08-17T02:33:03;77.97;;;72.95;;
53915;SDS011;39827;49.652;18.770;2023-08-17T02:35:29;63.65;;;59.28;;
53915;SDS011;39827;49.652;18.770;2023-08-17T02:37:55;60.42;;;56.45;;
53915;SDS011;39827;49.652;18.770;2023-08-17T02:40:20;57.90;;;53.72;;
53915;SDS011;39827;49.652;18.770;2023-08-17T02:42:46;55.45;;;51.40;;
53915;SDS011;39827;49.652;18.770;2023-08-17T02:45:11;74.88;;;70.15;;
53915;SDS011;39827;49.652;18.770;2023-08-17T02:47:37;61.88;;;57.63;;
53915;SDS011;39827;49.652;18.770;2023-08-17T02:50:02;79.93;;;74.75;;
53915;SDS011;39827;49.652;18.770;2023-08-17T02:52:28;86.60;;;80.45;;
53915;SDS011;39827;49.652;18.770;2023-08-17T02:54:54;109.68;;;102.65;;
53915;SDS011;39827;49.652;18.770;2023-08-17T02:57:19;116.93;;;109.88;;
53915;SDS011;39827;49.652;18.770;2023-08-17T02:59:45;102.20;;;95.80;;
53915;SDS011;39827;49.652;18.770;2023-08-17T03:02:10;98.30;;;91.93;;
53915;SDS011;39827;49.652;18.770;2023-08-17T03:04:36;114.18;;;107.22;;
53915;SDS011;39827;49.652;18.770;2023-08-17T03:07:01;101.55;;;95.35;;
53915;SDS011;39827;49.652;18.770;2023-08-17T03:09:26;112.22;;;104.95;;
53915;SDS011;39827;49.652;18.770;2023-08-17T03:11:52;127.35;;;119.53;;
53915;SDS011;39827;49.652;18.770;2023-08-17T03:14:17;95.75;;;89.78;;
53915;SDS011;39827;49.652;18.770;2023-08-17T03:16:43;112.28;;;105.13;;
53915;SDS011;39827;49.652;18.770;2023-08-17T03:19:08;101.22;;;95.03;;
53915;SDS011;39827;49.652;18.770;2023-08-17T03:21:36;98.38;;;92.07;;
53915;SDS011;39827;49.652;18.770;2023-08-17T03:24:01;119.10;;;111.60;;
53915;SDS011;39827;49.652;18.770;2023-08-17T03:26:26;105.13;;;98.75;;
53915;SDS011;39827;49.652;18.770;2023-08-17T03:28:52;104.88;;;98.57;;
53915;SDS011;39827;49.652;18.770;2023-08-17T03:31:19;100.88;;;94.57;;
53915;SDS011;39827;49.652;18.770;2023-08-17T03:33:46;101.05;;;94.45;;
53915;SDS011;39827;49.652;18.770;2023-08-17T03:36:11;108.75;;;101.85;;
53915;SDS011;39827;49.652;18.770;2023-08-17T03:38:36;122.80;;;114.78;;
53915;SDS011;39827;49.652;18.770;2023-08-17T03:41:04;141.82;;;133.05;;
53915;SDS011;39827;49.652;18.770;2023-08-17T03:43:30;131.77;;;123.00;;
53915;SDS011;39827;49.652;18.770;2023-08-17T03:45:55;160.73;;;150.57;;
53915;SDS011;39827;49.652;18.770;2023-08-17T03:48:20;135.18;;;126.80;;
53915;SDS011;39827;49.652;18.770;2023-08-17T03:50:50;149.15;;;139.73;;
53915;SDS011;39827;49.652;18.770;2023-08-17T03:53:17;129.20;;;120.93;;
53915;SDS011;39827;49.652;18.770;2023-08-17T03:55:46;87.05;;;81.45;;
53915;SDS011;39827;49.652;18.770;2023-08-17T03:58:12;123.63;;;116.10;;
53915;SDS011;39827;49.652;18.770;2023-08-17T04:00:37;73.28;;;68.20;;
53915;SDS011;39827;49.652;18.770;2023-08-17T04:03:04;166.02;;;155.90;;
53915;SDS011;39827;49.652;18.770;2023-08-17T04:05:29;79.68;;;74.32;;
53915;SDS011;39827;49.652;18.770;2023-08-17T04:07:55;79.78;;;74.65;;
53915;SDS011;39827;49.652;18.770;2023-08-17T04:10:21;64.32;;;59.55;;
53915;SDS011;39827;49.652;18.770;2023-08-17T04:12:46;53.38;;;49.30;;
53915;SDS011;39827;49.652;18.770;2023-08-17T04:15:11;53.75;;;49.95;;
53915;SDS011;39827;49.652;18.770;2023-08-17T04:17:37;51.97;;;48.42;;
53915;SDS011;39827;49.652;18.770;2023-08-17T04:20:02;70.63;;;66.07;;
53915;SDS011;39827;49.652;18.770;2023-08-17T04:22:29;60.05;;;55.95;;
53915;SDS011;39827;49.652;18.770;2023-08-17T04:24:55;47.95;;;44.35;;
53915;SDS011;39827;49.652;18.770;2023-08-17T04:27:20;61.33;;;56.92;;
53915;SDS011;39827;49.652;18.770;2023-08-17T04:29:46;61.22;;;57.10;;
53915;SDS011;39827;49.652;18.770;2023-08-17T04:32:15;43.67;;;40.35;;
53915;SDS011;39827;49.652;18.770;2023-08-17T04:34:41;43.22;;;40.03;;
53915;SDS011;39827;49.652;18.770;2023-08-17T04:37:07;44.63;;;41.08;;
53915;SDS011;39827;49.652;18.770;2023-08-17T04:39:33;44.75;;;41.35;;
53915;SDS011;39827;49.652;18.770;2023-08-17T04:41:58;40.90;;;37.95;;
53915;SDS011;39827;49.652;18.770;2023-08-17T04:44:23;42.67;;;39.45;;
53915;SDS011;39827;49.652;18.770;2023-08-17T04:46:49;43.50;;;40.35;;
53915;SDS011;39827;49.652;18.770;2023-08-17T04:49:14;44.75;;;41.47;;
53915;SDS011;39827;49.652;18.770;2023-08-17T04:51:39;38.35;;;35.22;;
53915;SDS011;39827;49.652;18.770;2023-08-17T04:54:05;40.25;;;37.30;;
53915;SDS011;39827;49.652;18.770;2023-08-17T04:56:30;46.75;;;43.47;;
53915;SDS011;39827;49.652;18.770;2023-08-17T04:58:56;46.13;;;42.83;;
53915;SDS011;39827;49.652;18.770;2023-08-17T05:01:21;45.80;;;42.38;;
53915;SDS011;39827;49.652;18.770;2023-08-17T05:03:47;47.33;;;43.85;;
53915;SDS011;39827;49.652;18.770;2023-08-17T05:06:12;48.05;;;44.60;;
53915;SDS011;39827;49.652;18.770;2023-08-17T05:08:38;48.53;;;44.72;;
53915;SDS011;39827;49.652;18.770;2023-08-17T05:11:03;54.15;;;50.35;;
53915;SDS011;39827;49.652;18.770;2023-08-17T05:13:29;65.88;;;61.30;;
53915;SDS011;39827;49.652;18.770;2023-08-17T05:15:54;70.93;;;66.13;;
53915;SDS011;39827;49.652;18.770;2023-08-17T05:18:20;68.53;;;64.18;;
53915;SDS011;39827;49.652;18.770;2023-08-17T05:20:45;62.80;;;58.35;;
53915;SDS011;39827;49.652;18.770;2023-08-17T05:23:11;74.75;;;69.72;;
53915;SDS011;39827;49.652;18.770;2023-08-17T05:25:36;84.45;;;79.10;;
53915;SDS011;39827;49.652;18.770;2023-08-17T05:28:02;77.25;;;72.35;;
53915;SDS011;39827;49.652;18.770;2023-08-17T05:30:27;91.65;;;85.65;;
53915;SDS011;39827;49.652;18.770;2023-08-17T05:32:53;94.15;;;88.25;;
53915;SDS011;39827;49.652;18.770;2023-08-17T05:35:18;95.53;;;89.53;;
53915;SDS011;39827;49.652;18.770;2023-08-17T05:37:43;77.88;;;72.80;;
53915;SDS011;39827;49.652;18.770;2023-08-17T05:40:09;131.15;;;122.97;;
53915;SDS011;39827;49.652;18.770;2023-08-17T05:42:35;134.30;;;125.72;;
53915;SDS011;39827;49.652;18.770;2023-08-17T05:45:01;154.75;;;144.95;;
53915;SDS011;39827;49.652;18.770;2023-08-17T05:47:26;125.90;;;117.75;;
53915;SDS011;39827;49.652;18.770;2023-08-17T05:49:52;152.32;;;142.45;;
53915;SDS011;39827;49.652;18.770;2023-08-17T05:52:17;142.43;;;133.52;;
53915;SDS011;39827;49.652;18.770;2023-08-17T05:54:43;125.38;;;117.40;;
53915;SDS011;39827;49.652;18.770;2023-08-17T05:57:08;140.75;;;131.77;;
53915;SDS011;39827;49.652;18.770;2023-08-17T05:59:35;61.35;;;57.03;;
53915;SDS011;39827;49.652;18.770;2023-08-17T06:02:00;53.90;;;50.22;;
53915;SDS011;39827;49.652;18.770;2023-08-17T06:04:25;51.88;;;48.15;;
53915;SDS011;39827;49.652;18.770;2023-08-17T06:06:51;65.30;;;60.65;;
53915;SDS011;39827;49.652;18.770;2023-08-17T06:09:16;79.10;;;74.00;;
53915;SDS011;39827;49.652;18.770;2023-08-17T06:11:42;100.68;;;94.28;;
53915;SDS011;39827;49.652;18.770;2023-08-17T06:14:07;145.73;;;136.57;;
53915;SDS011;39827;49.652;18.770;2023-08-17T06:16:33;189.32;;;177.93;;
53915;SDS011;39827;49.652;18.770;2023-08-17T06:18:58;229.05;;;215.15;;
53915;SDS011;39827;49.652;18.770;2023-08-17T06:21:24;224.20;;;210.07;;
53915;SDS011;39827;49.652;18.770;2023-08-17T06:23:49;234.90;;;219.95;;
53915;SDS011;39827;49.652;18.770;2023-08-17T06:26:14;217.93;;;204.38;;
53915;SDS011;39827;49.652;18.770;2023-08-17T06:28:40;185.80;;;174.38;;
53915;SDS011;39827;49.652;18.770;2023-08-17T06:31:05;171.63;;;160.40;;
53915;SDS011;39827;49.652;18.770;2023-08-17T06:33:31;126.50;;;118.40;;
53915;SDS011;39827;49.652;18.770;2023-08-17T06:35:57;117.03;;;109.68;;
53915;SDS011;39827;49.652;18.770;2023-08-17T06:38:22;139.23;;;130.65;;
53915;SDS011;39827;49.652;18.770;2023-08-17T06:40:48;133.43;;;125.13;;
53915;SDS011;39827;49.652;18.770;2023-08-17T06:43:13;115.55;;;108.03;;
53915;SDS011;39827;49.652;18.770;2023-08-17T06:45:39;98.65;;;92.38;;
53915;SDS011;39827;49.652;18.770;2023-08-17T06:48:04;90.30;;;84.60;;
53915;SDS011;39827;49.652;18.770;2023-08-17T06:50:30;83.50;;;77.65;;
53915;SDS011;39827;49.652;18.770;2023-08-17T06:52:56;92.97;;;86.10;;
53915;SDS011;39827;49.652;18.770;2023-08-17T06:55:21;87.13;;;81.22;;
53915;SDS011;39827;49.652;18.770;2023-08-17T06:57:47;103.97;;;96.55;;
53915;SDS011;39827;49.652;18.770;2023-08-17T07:00:14;133.88;;;124.75;;
53915;SDS011;39827;49.652;18.770;2023-08-17T07:02:40;146.13;;;135.52;;
53915;SDS011;39827;49.652;18.770;2023-08-17T07:05:06;151.73;;;141.52;;
53915;SDS011;39827;49.652;18.770;2023-08-17T07:07:31;223.25;;;208.55;;
53915;SDS011;39827;49.652;18.770;2023-08-17T07:09:59;260.50;;;243.32;;
53915;SDS011;39827;49.652;18.770;2023-08-17T07:12:26;282.83;;;263.90;;
53915;SDS011;39827;49.652;18.770;2023-08-17T07:14:53;289.92;;;271.48;;
53915;SDS011;39827;49.652;18.770;2023-08-17T07:17:18;331.00;;;308.85;;
53915;SDS011;39827;49.652;18.770;2023-08-17T07:19:44;362.35;;;338.48;;
53915;SDS011;39827;49.652;18.770;2023-08-17T07:22:09;353.52;;;330.33;;
53915;SDS011;39827;49.652;18.770;2023-08-17T07:24:35;369.38;;;345.45;;
53915;SDS011;39827;49.652;18.770;2023-08-17T07:27:00;394.85;;;369.42;;
53915;SDS011;39827;49.652;18.770;2023-08-17T07:29:25;431.00;;;403.50;;
53915;SDS011;39827;49.652;18.770;2023-08-17T07:31:51;461.25;;;430.42;;
53915;SDS011;39827;49.652;18.770;2023-08-17T07:34:16;482.88;;;451.80;;
53915;SDS011;39827;49.652;18.770;2023-08-17T07:36:42;527.50;;;492.27;;
53915;SDS011;39827;49.652;18.770;2023-08-17T07:39:07;579.05;;;538.72;;
53915;SDS011;39827;49.652;18.770;2023-08-17T07:41:33;510.95;;;476.50;;
53915;SDS011;39827;49.652;18.770;2023-08-17T07:43:58;504.33;;;470.20;;
53915;SDS011;39827;49.652;18.770;2023-08-17T07:46:23;576.75;;;536.28;;
53915;SDS011;39827;49.652;18.770;2023-08-17T07:48:49;608.85;;;565.63;;
53915;SDS011;39827;49.652;18.770;2023-08-17T07:51:14;311.38;;;293.38;;
53915;SDS011;39827;49.652;18.770;2023-08-17T07:53:40;340.17;;;320.83;;
53915;SDS011;39827;49.652;18.770;2023-08-17T07:56:05;300.25;;;282.73;;
53915;SDS011;39827;49.652;18.770;2023-08-17T07:58:31;365.42;;;344.45;;
53915;SDS011;39827;49.652;18.770;2023-08-17T08:00:56;427.50;;;399.08;;
53915;SDS011;39827;49.652;18.770;2023-08-17T08:03:22;561.42;;;522.08;;
53915;SDS011;39827;49.652;18.770;2023-08-17T08:05:47;596.17;;;555.38;;
53915;SDS011;39827;49.652;18.770;2023-08-17T08:08:13;320.30;;;301.55;;
53915;SDS011;39827;49.652;18.770;2023-08-17T08:10:39;375.85;;;354.38;;
53915;SDS011;39827;49.652;18.770;2023-08-17T08:13:05;493.70;;;459.98;;
53915;SDS011;39827;49.652;18.770;2023-08-17T08:15:31;602.47;;;559.55;;
53915;SDS011;39827;49.652;18.770;2023-08-17T08:17:57;322.83;;;304.50;;
53915;SDS011;39827;49.652;18.770;2023-08-17T08:20:23;353.30;;;333.05;;
53915;SDS011;39827;49.652;18.770;2023-08-17T08:22:48;427.08;;;397.45;;
53915;SDS011;39827;49.652;18.770;2023-08-17T08:25:14;360.20;;;339.73;;
53915;SDS011;39827;49.652;18.770;2023-08-17T08:27:39;357.27;;;336.27;;
53915;SDS011;39827;49.652;18.770;2023-08-17T08:30:05;458.25;;;426.63;;
53915;SDS011;39827;49.652;18.770;2023-08-17T08:32:31;337.63;;;318.20;;
53915;SDS011;39827;49.652;18.770;2023-08-17T08:34:56;373.48;;;349.58;;
53915;SDS011;39827;49.652;18.770;2023-08-17T08:37:22;321.33;;;302.05;;
53915;SDS011;39827;49.652;18.770;2023-08-17T08:39:48;294.25;;;276.58;;
53915;SDS011;39827;49.652;18.770;2023-08-17T08:42:16;248.68;;;233.30;;
53915;SDS011;39827;49.652;18.770;2023-08-17T08:44:42;351.67;;;326.25;;
53915;SDS011;39827;49.652;18.770;2023-08-17T08:47:08;190.30;;;178.30;;
53915;SDS011;39827;49.652;18.770;2023-08-17T08:49:34;203.98;;;191.32;;
53915;SDS011;39827;49.652;18.770;2023-08-17T08:52:10;345.92;;;320.00;;
53915;SDS011;39827;49.652;18.770;2023-08-17T08:57:08;264.60;;;247.88;;
53915;SDS011;39827;49.652;18.770;2023-08-17T08:59:39;191.88;;;179.77;;
53915;SDS011;39827;49.652;18.770;2023-08-17T09:02:10;304.10;;;284.88;;
53915;SDS011;39827;49.652;18.770;2023-08-17T09:04:39;322.13;;;302.90;;
53915;SDS011;39827;49.652;18.770;2023-08-17T09:07:04;257.00;;;241.90;;
53915;SDS011;39827;49.652;18.770;2023-08-17T09:09:31;305.48;;;286.58;;
53915;SDS011;39827;49.652;18.770;2023-08-17T09:11:56;240.23;;;225.00;;
53915;SDS011;39827;49.652;18.770;2023-08-17T09:14:22;222.80;;;208.45;;
53915;SDS011;39827;49.652;18.770;2023-08-17T09:16:47;389.73;;;359.27;;
53915;SDS011;39827;49.652;18.770;2023-08-17T09:19:13;410.20;;;378.88;;
53915;SDS011;39827;49.652;18.770;2023-08-17T09:21:39;118.30;;;110.75;;
53915;SDS011;39827;49.652;18.770;2023-08-17T09:24:04;203.60;;;190.73;;
53915;SDS011;39827;49.652;18.770;2023-08-17T09:26:33;257.45;;;241.20;;
53915;SDS011;39827;49.652;18.770;2023-08-17T09:28:59;224.55;;;208.85;;
53915;SDS011;39827;49.652;18.770;2023-08-17T09:31:26;283.85;;;263.98;;
53915;SDS011;39827;49.652;18.770;2023-08-17T09:33:56;119.57;;;111.95;;
53915;SDS011;39827;49.652;18.770;2023-08-17T09:36:22;131.13;;;122.22;;
53915;SDS011;39827;49.652;18.770;2023-08-17T09:38:48;284.17;;;264.08;;
53915;SDS011;39827;49.652;18.770;2023-08-17T09:41:15;164.27;;;153.85;;
53915;SDS011;39827;49.652;18.770;2023-08-17T09:43:41;234.90;;;219.25;;
53915;SDS011;39827;49.652;18.770;2023-08-17T09:46:06;467.70;;;431.48;;
53915;SDS011;39827;49.652;18.770;2023-08-17T09:48:33;553.05;;;508.88;;
53915;SDS011;39827;49.652;18.770;2023-08-17T09:50:58;611.50;;;563.08;;
53915;SDS011;39827;49.652;18.770;2023-08-17T09:53:26;533.78;;;496.65;;
53915;SDS011;39827;49.652;18.770;2023-08-17T09:55:51;377.75;;;351.75;;
53915;SDS011;39827;49.652;18.770;2023-08-17T09:58:19;447.00;;;412.02;;
53915;SDS011;39827;49.652;18.770;2023-08-17T10:00:46;527.03;;;484.80;;
53915;SDS011;39827;49.652;18.770;2023-08-17T10:03:14;394.60;;;363.48;;
53915;SDS011;39827;49.652;18.770;2023-08-17T10:05:42;530.05;;;488.05;;
53915;SDS011;39827;49.652;18.770;2023-08-17T10:08:08;587.50;;;541.03;;
53915;SDS011;39827;49.652;18.770;2023-08-17T10:10:38;536.50;;;494.10;;
53915;SDS011;39827;49.652;18.770;2023-08-17T10:13:08;579.72;;;534.33;;
53915;SDS011;39827;49.652;18.770;2023-08-17T10:15:39;553.72;;;510.33;;
53915;SDS011;39827;49.652;18.770;2023-08-17T10:20:42;638.92;;;589.45;;
53915;SDS011;39827;49.652;18.770;2023-08-17T10:23:14;611.53;;;564.63;;
53915;SDS011;39827;49.652;18.770;2023-08-17T10:25:42;463.65;;;428.77;;
53915;SDS011;39827;49.652;18.770;2023-08-17T10:28:09;480.05;;;443.27;;
53915;SDS011;39827;49.652;18.770;2023-08-17T10:30:36;452.88;;;419.23;;
53915;SDS011;39827;49.652;18.770;2023-08-17T10:33:03;521.60;;;482.25;;
53915;SDS011;39827;49.652;18.770;2023-08-17T10:35:33;517.47;;;478.80;;
53915;SDS011;39827;49.652;18.770;2023-08-17T10:38:00;549.95;;;508.40;;
53915;SDS011;39827;49.652;18.770;2023-08-17T10:40:36;445.23;;;411.25;;
53915;SDS011;39827;49.652;18.770;2023-08-17T10:43:03;272.95;;;254.13;;
53915;SDS011;39827;49.652;18.770;2023-08-17T10:45:29;238.10;;;221.73;;
53915;SDS011;39827;49.652;18.770;2023-08-17T10:48:24;221.05;;;204.90;;
53915;SDS011;39827;49.652;18.770;2023-08-17T10:50:58;538.03;;;496.23;;
53915;SDS011;39827;49.652;18.770;2023-08-17T10:53:26;496.97;;;459.50;;
53915;SDS011;39827;49.652;18.770;2023-08-17T10:55:56;753.50;;;696.67;;
53915;SDS011;39827;49.652;18.770;2023-08-17T10:58:22;516.63;;;481.40;;
53915;SDS011;39827;49.652;18.770;2023-08-17T11:00:48;388.65;;;359.73;;
53915;SDS011;39827;49.652;18.770;2023-08-17T11:03:20;145.07;;;135.05;;
53915;SDS011;39827;49.652;18.770;2023-08-17T11:05:51;285.25;;;265.42;;
53915;SDS011;39827;49.652;18.770;2023-08-17T11:11:02;307.90;;;285.88;;
53915;SDS011;39827;49.652;18.770;2023-08-17T11:13:39;211.20;;;197.05;;
53915;SDS011;39827;49.652;18.770;2023-08-17T11:16:06;263.92;;;247.15;;
53915;SDS011;39827;49.652;18.770;2023-08-17T11:18:33;249.52;;;232.85;;
53915;SDS011;39827;49.652;18.770;2023-08-17T11:21:00;250.27;;;233.25;;
53915;SDS011;39827;49.652;18.770;2023-08-17T11:23:28;223.88;;;208.95;;
53915;SDS011;39827;49.652;18.770;2023-08-17T11:25:55;238.90;;;222.55;;
53915;SDS011;39827;49.652;18.770;2023-08-17T11:28:21;168.20;;;156.98;;
53915;SDS011;39827;49.652;18.770;2023-08-17T11:31:00;230.40;;;215.35;;
53915;SDS011;39827;49.652;18.770;2023-08-17T11:33:27;105.82;;;99.25;;
53915;SDS011;39827;49.652;18.770;2023-08-17T11:35:54;89.18;;;83.72;;
53915;SDS011;39827;49.652;18.770;2023-08-17T11:38:20;123.88;;;115.97;;
53915;SDS011;39827;49.652;18.770;2023-08-17T11:40:46;291.10;;;270.48;;
53915;SDS011;39827;49.652;18.770;2023-08-17T11:43:12;220.55;;;205.68;;
53915;SDS011;39827;49.652;18.770;2023-08-17T11:45:39;294.75;;;273.80;;
53915;SDS011;39827;49.652;18.770;2023-08-17T11:48:04;331.75;;;308.15;;
53915;SDS011;39827;49.652;18.770;2023-08-17T11:50:30;278.80;;;259.25;;
53915;SDS011;39827;49.652;18.770;2023-08-17T11:52:58;289.80;;;268.77;;
53915;SDS011;39827;49.652;18.770;2023-08-17T11:55:25;256.85;;;239.07;;
53915;SDS011;39827;49.652;18.770;2023-08-17T11:57:50;233.98;;;218.15;;
53915;SDS011;39827;49.652;18.770;2023-08-17T12:00:17;308.83;;;288.00;;
53915;SDS011;39827;49.652;18.770;2023-08-17T12:02:50;172.68;;;161.93;;
53915;SDS011;39827;49.652;18.770;2023-08-17T12:05:20;114.30;;;107.47;;
53915;SDS011;39827;49.652;18.770;2023-08-17T12:07:48;105.18;;;98.82;;
53915;SDS011;39827;49.652;18.770;2023-08-17T12:10:13;83.57;;;78.05;;
53915;SDS011;39827;49.652;18.770;2023-08-17T12:12:39;58.63;;;54.75;;
53915;SDS011;39827;49.652;18.770;2023-08-17T12:15:05;67.88;;;63.15;;
53915;SDS011;39827;49.652;18.770;2023-08-17T12:17:31;115.03;;;107.78;;
53915;SDS011;39827;49.652;18.770;2023-08-17T12:19:58;207.48;;;194.50;;
53915;SDS011;39827;49.652;18.770;2023-08-17T12:22:25;160.98;;;150.65;;
53915;SDS011;39827;49.652;18.770;2023-08-17T12:24:51;179.70;;;168.50;;
53915;SDS011;39827;49.652;18.770;2023-08-17T12:27:17;190.82;;;178.82;;
53915;SDS011;39827;49.652;18.770;2023-08-17T12:29:50;281.85;;;264.40;;
53915;SDS011;39827;49.652;18.770;2023-08-17T12:32:17;180.82;;;169.77;;
53915;SDS011;39827;49.652;18.770;2023-08-17T12:34:44;180.27;;;169.38;;
53915;SDS011;39827;49.652;18.770;2023-08-17T12:37:10;330.63;;;309.42;;
53915;SDS011;39827;49.652;18.770;2023-08-17T12:39:36;185.60;;;174.68;;
53915;SDS011;39827;49.652;18.770;2023-08-17T12:42:02;156.15;;;146.77;;
53915;SDS011;39827;49.652;18.770;2023-08-17T12:44:28;124.85;;;117.15;;
53915;SDS011;39827;49.652;18.770;2023-08-17T12:46:53;72.78;;;68.28;;
53915;SDS011;39827;49.652;18.770;2023-08-17T12:49:19;66.32;;;62.05;;
53915;SDS011;39827;49.652;18.770;2023-08-17T12:51:44;93.45;;;87.43;;
53915;SDS011;39827;49.652;18.770;2023-08-17T12:54:10;222.32;;;208.57;;
53915;SDS011;39827;49.652;18.770;2023-08-17T12:56:35;50.10;;;46.90;;
53915;SDS011;39827;49.652;18.770;2023-08-17T12:59:00;90.95;;;85.32;;
53915;SDS011;39827;49.652;18.770;2023-08-17T13:01:26;63.15;;;59.10;;
53915;SDS011;39827;49.652;18.770;2023-08-17T13:03:51;117.25;;;110.18;;
53915;SDS011;39827;49.652;18.770;2023-08-17T13:06:17;89.68;;;84.32;;
53915;SDS011;39827;49.652;18.770;2023-08-17T13:08:42;111.43;;;104.65;;
53915;SDS011;39827;49.652;18.770;2023-08-17T13:11:07;110.60;;;103.85;;
53915;SDS011;39827;49.652;18.770;2023-08-17T13:13:33;105.70;;;99.28;;
53915;SDS011;39827;49.652;18.770;2023-08-17T13:15:58;112.78;;;105.93;;
53915;SDS011;39827;49.652;18.770;2023-08-17T13:18:24;173.35;;;162.93;;
53915;SDS011;39827;49.652;18.770;2023-08-17T13:20:49;170.93;;;160.88;;
53915;SDS011;39827;49.652;18.770;2023-08-17T13:23:14;144.43;;;135.93;;
53915;SDS011;39827;49.652;18.770;2023-08-17T13:25:40;142.82;;;134.13;;
53915;SDS011;39827;49.652;18.770;2023-08-17T13:28:05;123.43;;;116.05;;
53915;SDS011;39827;49.652;18.770;2023-08-17T13:30:31;191.77;;;179.98;;
53915;SDS011;39827;49.652;18.770;2023-08-17T13:32:56;134.95;;;126.93;;
53915;SDS011;39827;49.652;18.770;2023-08-17T13:35:22;148.38;;;139.38;;
53915;SDS011;39827;49.652;18.770;2023-08-17T13:37:53;147.73;;;138.88;;
53915;SDS011;39827;49.652;18.770;2023-08-17T13:40:19;151.10;;;142.27;;
53915;SDS011;39827;49.652;18.770;2023-08-17T13:42:45;152.95;;;143.88;;
53915;SDS011;39827;49.652;18.770;2023-08-17T13:45:11;195.90;;;183.85;;
53915;SDS011;39827;49.652;18.770;2023-08-17T13:47:36;212.55;;;200.02;;
53915;SDS011;39827;49.652;18.770;2023-08-17T13:50:02;217.25;;;204.38;;
53915;SDS011;39827;49.652;18.770;2023-08-17T13:52:28;224.23;;;210.65;;
53915;SDS011;39827;49.652;18.770;2023-08-17T13:54:54;173.00;;;162.38;;
53915;SDS011;39827;49.652;18.770;2023-08-17T13:57:19;201.52;;;188.73;;
53915;SDS011;39827;49.652;18.770;2023-08-17T13:59:44;147.38;;;138.38;;
53915;SDS011;39827;49.652;18.770;2023-08-17T14:02:10;179.52;;;168.55;;